createdAt,value
2019-05-21T00:00:43.486Z,1004.59
2019-05-21T00:01:43.484Z,1004.62
2019-05-21T00:02:43.473Z,1004.61
2019-05-21T00:03:43.467Z,1004.59
2019-05-21T00:04:43.468Z,1004.59
2019-05-21T00:05:43.463Z,1004.60
2019-05-21T00:06:43.460Z,1004.61
2019-05-21T00:07:43.454Z,1004.61
2019-05-21T00:08:43.470Z,1004.60
2019-05-21T00:09:43.441Z,1004.57
2019-05-21T00:10:43.433Z,1004.61
2019-05-21T00:11:43.424Z,1004.64
2019-05-21T00:12:43.425Z,1004.62
2019-05-21T00:13:43.423Z,1004.69
2019-05-21T00:14:43.408Z,1004.62
2019-05-21T00:15:43.404Z,1004.63
2019-05-21T00:16:43.403Z,1004.65
2019-05-21T00:17:43.399Z,1004.68
2019-05-21T00:18:43.395Z,1004.66
2019-05-21T00:19:43.388Z,1004.65
2019-05-21T00:20:43.385Z,1004.61
2019-05-21T00:21:43.374Z,1004.63
2019-05-21T00:22:43.370Z,1004.60
2019-05-21T00:23:43.363Z,1004.61
2019-05-21T00:24:43.418Z,1004.56
2019-05-21T00:25:43.356Z,1004.58
2019-05-21T00:26:43.347Z,1004.57
2019-05-21T00:27:43.345Z,1004.51
2019-05-21T00:28:43.333Z,1004.55
2019-05-21T00:29:43.329Z,1004.48
2019-05-21T00:30:43.328Z,1004.49
2019-05-21T00:31:43.321Z,1004.46
2019-05-21T00:32:43.312Z,1004.46
2019-05-21T00:33:43.310Z,1004.49
2019-05-21T00:34:44.369Z,1004.50
2019-05-21T00:35:43.297Z,1004.49
2019-05-21T00:36:43.296Z,1004.44
2019-05-21T00:37:43.291Z,1004.42
2019-05-21T00:38:43.288Z,1004.44
2019-05-21T00:39:43.278Z,1004.45
2019-05-21T00:40:43.271Z,1004.46
2019-05-21T00:41:43.271Z,1004.45
2019-05-21T00:42:43.257Z,1004.43
2019-05-21T00:43:43.253Z,1004.43
2019-05-21T00:44:43.249Z,1004.40
2019-05-21T00:45:43.290Z,1004.41
2019-05-21T00:46:43.234Z,1004.43
2019-05-21T00:47:43.229Z,1004.39
2019-05-21T00:48:43.236Z,1004.44
2019-05-21T00:49:43.224Z,1004.38
2019-05-21T00:50:43.219Z,1004.42
2019-05-21T00:51:43.213Z,1004.40
2019-05-21T00:52:43.205Z,1004.34
2019-05-21T00:53:43.199Z,1004.34
2019-05-21T00:54:43.199Z,1004.37
2019-05-21T00:55:43.186Z,1004.31
2019-05-21T00:56:43.221Z,1004.36
2019-05-21T00:57:43.179Z,1004.31
2019-05-21T00:58:43.172Z,1004.35
2019-05-21T00:59:43.169Z,1004.30
2019-05-21T01:00:43.162Z,1004.34
2019-05-21T01:01:43.156Z,1004.30
2019-05-21T01:02:43.150Z,1004.34
2019-05-21T01:03:43.541Z,1004.31
2019-05-21T01:04:43.134Z,1004.35
2019-05-21T01:05:43.129Z,1004.36
2019-05-21T01:06:43.125Z,1004.31
2019-05-21T01:07:43.127Z,1004.39
2019-05-21T01:08:43.119Z,1004.43
2019-05-21T01:09:43.138Z,1004.39
2019-05-21T01:10:43.105Z,1004.35
2019-05-21T01:11:43.101Z,1004.40
2019-05-21T01:12:43.087Z,1004.38
2019-05-21T01:13:43.085Z,1004.34
2019-05-21T01:14:43.083Z,1004.33
2019-05-21T01:15:43.073Z,1004.35
2019-05-21T01:16:43.075Z,1004.41
2019-05-21T01:17:43.066Z,1004.33
2019-05-21T01:18:43.058Z,1004.37
2019-05-21T01:19:43.052Z,1004.31
2019-05-21T01:20:43.051Z,1004.32
2019-05-21T01:21:43.046Z,1004.34
2019-05-21T01:22:43.036Z,1004.27
2019-05-21T01:23:43.028Z,1004.33
2019-05-21T01:24:43.019Z,1004.33
2019-05-21T01:25:43.013Z,1004.34
2019-05-21T01:26:43.009Z,1004.27
2019-05-21T01:27:43.001Z,1004.37
2019-05-21T01:28:43.003Z,1004.29
2019-05-21T01:29:42.996Z,1004.38
2019-05-21T01:30:42.994Z,1004.38
2019-05-21T01:31:42.986Z,1004.38
2019-05-21T01:32:42.977Z,1004.37
2019-05-21T01:33:42.971Z,1004.39
2019-05-21T01:34:42.973Z,1004.38
2019-05-21T01:35:42.962Z,1004.42
2019-05-21T01:36:42.952Z,1004.36
2019-05-21T01:37:42.946Z,1004.39
2019-05-21T01:38:42.939Z,1004.40
2019-05-21T01:39:42.936Z,1004.36
2019-05-21T01:40:42.931Z,1004.40
2019-05-21T01:41:42.925Z,1004.38
2019-05-21T01:42:42.920Z,1004.38
2019-05-21T01:43:42.912Z,1004.35
2019-05-21T01:44:42.904Z,1004.39
2019-05-21T01:45:42.898Z,1004.38
2019-05-21T01:46:42.895Z,1004.35
2019-05-21T01:47:42.888Z,1004.32
2019-05-21T01:48:42.897Z,1004.36
2019-05-21T01:49:42.881Z,1004.40
2019-05-21T01:50:42.872Z,1004.43
2019-05-21T01:51:42.864Z,1004.39
2019-05-21T01:52:42.865Z,1004.39
2019-05-21T01:53:42.860Z,1004.38
2019-05-21T01:54:42.851Z,1004.38
2019-05-21T01:55:42.849Z,1004.42
2019-05-21T01:56:42.831Z,1004.38
2019-05-21T01:57:42.828Z,1004.37
2019-05-21T01:58:42.821Z,1004.38
2019-05-21T01:59:42.816Z,1004.35
2019-05-21T02:00:42.814Z,1004.31
2019-05-21T02:01:42.808Z,1004.30
2019-05-21T02:02:42.804Z,1004.31
2019-05-21T02:03:42.799Z,1004.31
2019-05-21T02:04:42.789Z,1004.31
2019-05-21T02:05:42.783Z,1004.25
2019-05-21T02:06:42.780Z,1004.28
2019-05-21T02:07:42.774Z,1004.27
2019-05-21T02:08:42.841Z,1004.28
2019-05-21T02:09:42.763Z,1004.26
2019-05-21T02:10:42.752Z,1004.32
2019-05-21T02:11:42.745Z,1004.27
2019-05-21T02:12:42.743Z,1004.27
2019-05-21T02:13:42.737Z,1004.25
2019-05-21T02:14:42.732Z,1004.29
2019-05-21T02:15:42.727Z,1004.30
2019-05-21T02:16:42.717Z,1004.30
2019-05-21T02:17:42.711Z,1004.32
2019-05-21T02:18:42.704Z,1004.33
2019-05-21T02:19:42.697Z,1004.30
2019-05-21T02:20:42.696Z,1004.31
2019-05-21T02:21:42.688Z,1004.28
2019-05-21T02:22:42.679Z,1004.29
2019-05-21T02:23:42.673Z,1004.27
2019-05-21T02:24:42.672Z,1004.29
2019-05-21T02:25:42.666Z,1004.26
2019-05-21T02:26:42.663Z,1004.32
2019-05-21T02:27:42.654Z,1004.34
2019-05-21T02:28:42.650Z,1004.36
2019-05-21T02:29:42.640Z,1004.43
2019-05-21T02:30:42.636Z,1004.36
2019-05-21T02:31:42.631Z,1004.41
2019-05-21T02:32:42.629Z,1004.41
2019-05-21T02:33:42.621Z,1004.40
2019-05-21T02:34:42.616Z,1004.42
2019-05-21T02:35:53.477Z,1004.43
2019-05-21T02:36:42.597Z,1004.43
2019-05-21T02:37:42.591Z,1004.45
2019-05-21T02:38:42.592Z,1004.42
2019-05-21T02:39:42.585Z,1004.41
2019-05-21T02:40:42.575Z,1004.42
2019-05-21T02:41:42.571Z,1004.45
2019-05-21T02:42:42.565Z,1004.49
2019-05-21T02:43:42.566Z,1004.48
2019-05-21T02:44:42.557Z,1004.47
2019-05-21T02:45:42.555Z,1004.50
2019-05-21T02:46:42.548Z,1004.49
2019-05-21T02:47:42.555Z,1004.44
2019-05-21T02:48:42.530Z,1004.44
2019-05-21T02:49:42.538Z,1004.47
2019-05-21T02:50:42.518Z,1004.46
2019-05-21T02:51:42.510Z,1004.48
2019-05-21T02:52:42.510Z,1004.48
2019-05-21T02:53:42.504Z,1004.52
2019-05-21T02:54:42.539Z,1004.50
2019-05-21T02:55:42.484Z,1004.53
2019-05-21T02:56:42.483Z,1004.52
2019-05-21T02:57:42.485Z,1004.51
2019-05-21T02:58:42.488Z,1004.55
2019-05-21T02:59:42.468Z,1004.55
2019-05-21T03:00:42.465Z,1004.53
2019-05-21T03:01:42.457Z,1004.59
2019-05-21T03:02:42.447Z,1004.54
2019-05-21T03:03:42.441Z,1004.57
2019-05-21T03:04:42.439Z,1004.59
2019-05-21T03:05:42.433Z,1004.58
2019-05-21T03:06:42.427Z,1004.67
2019-05-21T03:07:42.419Z,1004.67
2019-05-21T03:08:42.409Z,1004.75
2019-05-21T03:09:42.402Z,1004.68
2019-05-21T03:10:42.401Z,1004.68
2019-05-21T03:11:42.395Z,1004.71
2019-05-21T03:12:42.384Z,1004.68
2019-05-21T03:13:42.378Z,1004.70
2019-05-21T03:14:42.387Z,1004.69
2019-05-21T03:15:42.368Z,1004.73
2019-05-21T03:16:42.383Z,1004.75
2019-05-21T03:17:42.365Z,1004.74
2019-05-21T03:18:42.353Z,1004.72
2019-05-21T03:19:42.347Z,1004.70
2019-05-21T03:20:42.337Z,1004.72
2019-05-21T03:21:42.331Z,1004.74
2019-05-21T03:22:42.331Z,1004.71
2019-05-21T03:23:42.321Z,1004.77
2019-05-21T03:24:42.319Z,1004.73
2019-05-21T03:25:42.315Z,1004.73
2019-05-21T03:26:42.304Z,1004.72
2019-05-21T03:27:42.301Z,1004.81
2019-05-21T03:28:42.294Z,1004.76
2019-05-21T03:29:42.292Z,1004.78
2019-05-21T03:30:42.296Z,1004.83
2019-05-21T03:31:42.276Z,1004.76
2019-05-21T03:32:42.290Z,1004.75
2019-05-21T03:33:42.260Z,1004.75
2019-05-21T03:34:42.261Z,1004.80
2019-05-21T03:35:42.247Z,1004.78
2019-05-21T03:36:42.246Z,1004.81
2019-05-21T03:37:42.238Z,1004.78
2019-05-21T03:38:42.237Z,1004.77
2019-05-21T03:39:42.292Z,1004.77
2019-05-21T03:40:42.219Z,1004.80
2019-05-21T03:41:42.217Z,1004.76
2019-05-21T03:42:42.214Z,1004.81
2019-05-21T03:43:42.211Z,1004.78
2019-05-21T03:44:58.280Z,1004.84
2019-05-21T03:45:42.191Z,1004.82
2019-05-21T03:46:42.182Z,1004.86
2019-05-21T03:47:42.176Z,1004.80
2019-05-21T03:48:42.193Z,1004.83
2019-05-21T03:49:42.169Z,1004.83
2019-05-21T03:50:42.165Z,1004.79
2019-05-21T03:51:42.158Z,1004.83
2019-05-21T03:52:42.152Z,1004.86
2019-05-21T03:53:42.139Z,1004.84
2019-05-21T03:54:42.142Z,1004.82
2019-05-21T03:55:42.134Z,1004.85
2019-05-21T03:56:42.127Z,1004.81
2019-05-21T03:57:42.122Z,1004.83
2019-05-21T03:58:42.117Z,1004.86
2019-05-21T03:59:42.104Z,1004.95
2019-05-21T04:00:42.106Z,1004.94
2019-05-21T04:01:42.098Z,1004.94
2019-05-21T04:02:42.089Z,1004.98
2019-05-21T04:03:42.087Z,1004.88
2019-05-21T04:04:42.074Z,1004.89
2019-05-21T04:05:42.067Z,1004.87
2019-05-21T04:06:51.665Z,1004.89
2019-05-21T04:07:42.057Z,1004.89
2019-05-21T04:08:42.064Z,1004.89
2019-05-21T04:09:42.058Z,1004.93
2019-05-21T04:10:42.045Z,1004.90
2019-05-21T04:11:42.036Z,1004.89
2019-05-21T04:12:42.037Z,1004.89
2019-05-21T04:13:42.022Z,1004.93
2019-05-21T04:14:42.018Z,1004.94
2019-05-21T04:15:42.026Z,1004.88
2019-05-21T04:16:42.004Z,1004.88
2019-05-21T04:17:42.007Z,1004.98
2019-05-21T04:18:41.989Z,1004.97
2019-05-21T04:19:41.986Z,1005.00
2019-05-21T04:20:42.001Z,1005.00
2019-05-21T04:21:41.975Z,1004.98
2019-05-21T04:22:41.973Z,1004.97
2019-05-21T04:23:41.966Z,1004.97
2019-05-21T04:24:41.958Z,1004.97
2019-05-21T04:25:41.952Z,1004.98
2019-05-21T04:26:41.943Z,1004.94
2019-05-21T04:27:41.936Z,1004.98
2019-05-21T04:28:41.954Z,1004.94
2019-05-21T04:29:41.932Z,1004.98
2019-05-21T04:30:41.920Z,1005.01
2019-05-21T04:31:41.910Z,1004.99
2019-05-21T04:32:41.919Z,1005.00
2019-05-21T04:33:41.905Z,1004.98
2019-05-21T04:34:41.900Z,1005.01
2019-05-21T04:35:41.894Z,1004.96
2019-05-21T04:36:41.885Z,1004.92
2019-05-21T04:37:41.880Z,1004.92
2019-05-21T04:38:41.878Z,1004.97
2019-05-21T04:39:41.875Z,1004.83
2019-05-21T04:40:41.866Z,1004.92
2019-05-21T04:41:41.861Z,1004.92
2019-05-21T04:42:41.854Z,1004.90
2019-05-21T04:43:41.846Z,1004.88
2019-05-21T04:44:41.839Z,1004.88
2019-05-21T04:45:41.830Z,1004.85
2019-05-21T04:46:41.828Z,1004.90
2019-05-21T04:47:41.824Z,1004.87
2019-05-21T04:48:41.813Z,1004.89
2019-05-21T04:49:41.807Z,1004.87
2019-05-21T04:50:41.807Z,1004.88
2019-05-21T04:51:41.797Z,1004.87
2019-05-21T04:52:41.796Z,1004.88
2019-05-21T04:53:41.789Z,1004.91
2019-05-21T04:54:41.785Z,1004.92
2019-05-21T04:55:41.786Z,1004.86
2019-05-21T04:56:41.767Z,1004.95
2019-05-21T04:57:41.763Z,1004.92
2019-05-21T04:58:41.753Z,1004.89
2019-05-21T04:59:41.747Z,1004.91
2019-05-21T05:00:41.759Z,1004.93
2019-05-21T05:01:41.741Z,1004.91
2019-05-21T05:02:41.732Z,1004.92
2019-05-21T05:03:41.725Z,1004.89
2019-05-21T05:04:41.724Z,1004.98
2019-05-21T05:05:41.719Z,1004.99
2019-05-21T05:06:41.714Z,1005.00
2019-05-21T05:07:41.719Z,1004.99
2019-05-21T05:08:41.698Z,1005.07
2019-05-21T05:09:41.693Z,1005.10
2019-05-21T05:10:41.689Z,1005.05
2019-05-21T05:11:41.682Z,1005.11
2019-05-21T05:12:41.681Z,1005.13
2019-05-21T05:13:41.674Z,1005.18
2019-05-21T05:14:41.666Z,1005.14
2019-05-21T05:15:41.661Z,1005.16
2019-05-21T05:16:41.648Z,1005.15
2019-05-21T05:17:41.651Z,1005.19
2019-05-21T05:18:41.645Z,1005.17
2019-05-21T05:19:41.638Z,1005.23
2019-05-21T05:20:41.628Z,1005.20
2019-05-21T05:21:41.621Z,1005.19
2019-05-21T05:22:41.639Z,1005.23
2019-05-21T05:23:41.613Z,1005.25
2019-05-21T05:24:41.610Z,1005.27
2019-05-21T05:25:41.606Z,1005.21
2019-05-21T05:26:41.602Z,1005.31
2019-05-21T05:27:41.590Z,1005.27
2019-05-21T05:28:41.581Z,1005.24
2019-05-21T05:29:41.578Z,1005.15
2019-05-21T05:30:41.575Z,1005.23
2019-05-21T05:31:41.570Z,1005.22
2019-05-21T05:32:41.564Z,1005.28
2019-05-21T05:33:41.559Z,1005.32
2019-05-21T05:34:41.549Z,1005.30
2019-05-21T05:35:41.543Z,1005.33
2019-05-21T05:36:41.542Z,1005.27
2019-05-21T05:37:45.160Z,1005.34
2019-05-21T05:38:41.531Z,1005.34
2019-05-21T05:39:41.520Z,1005.38
2019-05-21T05:40:41.510Z,1005.38
2019-05-21T05:41:41.507Z,1005.35
2019-05-21T05:42:41.507Z,1005.31
2019-05-21T05:43:41.496Z,1005.42
2019-05-21T05:44:41.494Z,1005.40
2019-05-21T05:45:41.489Z,1005.40
2019-05-21T05:46:41.483Z,1005.45
2019-05-21T05:47:41.477Z,1005.37
2019-05-21T05:48:41.469Z,1005.46
2019-05-21T05:49:41.462Z,1005.42
2019-05-21T05:50:41.464Z,1005.41
2019-05-21T05:51:41.459Z,1005.41
2019-05-21T05:52:41.446Z,1005.44
2019-05-21T05:53:41.439Z,1005.42
2019-05-21T05:54:41.430Z,1005.45
2019-05-21T05:55:41.425Z,1005.40
2019-05-21T05:56:41.447Z,1005.45
2019-05-21T05:57:41.449Z,1005.44
2019-05-21T05:58:41.412Z,1005.47
2019-05-21T05:59:41.406Z,1005.50
2019-05-21T06:00:41.394Z,1005.49
2019-05-21T06:01:41.392Z,1005.54
2019-05-21T06:02:41.387Z,1005.50
2019-05-21T06:03:41.380Z,1005.51
2019-05-21T06:04:41.379Z,1005.51
2019-05-21T06:05:41.374Z,1005.50
2019-05-21T06:06:41.424Z,1005.54
2019-05-21T06:07:41.360Z,1005.59
2019-05-21T06:08:41.355Z,1005.56
2019-05-21T06:09:41.352Z,1005.54
2019-05-21T06:10:41.344Z,1005.55
2019-05-21T06:11:41.338Z,1005.56
2019-05-21T06:12:41.369Z,1005.59
2019-05-21T06:13:41.322Z,1005.54
2019-05-21T06:14:41.320Z,1005.58
2019-05-21T06:15:41.311Z,1005.52
2019-05-21T06:16:41.308Z,1005.59
2019-05-21T06:17:41.307Z,1005.56
2019-05-21T06:18:41.300Z,1005.62
2019-05-21T06:19:41.293Z,1005.64
2019-05-21T06:20:41.289Z,1005.61
2019-05-21T06:21:41.280Z,1005.64
2019-05-21T06:22:41.278Z,1005.58
2019-05-21T06:23:41.269Z,1005.64
2019-05-21T06:24:41.262Z,1005.64
2019-05-21T06:25:41.255Z,1005.62
2019-05-21T06:26:41.246Z,1005.65
2019-05-21T06:27:41.241Z,1005.64
2019-05-21T06:28:41.240Z,1005.63
2019-05-21T06:29:41.236Z,1005.65
2019-05-21T06:30:41.229Z,1005.70
2019-05-21T06:31:41.230Z,1005.73
2019-05-21T06:32:41.216Z,1005.70
2019-05-21T06:33:41.208Z,1005.72
2019-05-21T06:34:41.209Z,1005.75
2019-05-21T06:35:41.201Z,1005.73
2019-05-21T06:36:41.196Z,1005.77
2019-05-21T06:37:41.194Z,1005.79
2019-05-21T06:38:41.184Z,1005.85
2019-05-21T06:39:41.177Z,1005.85
2019-05-21T06:40:41.177Z,1005.89
2019-05-21T06:41:41.169Z,1005.85
2019-05-21T06:42:41.165Z,1005.90
2019-05-21T06:43:41.159Z,1005.88
2019-05-21T06:44:41.147Z,1005.94
2019-05-21T06:45:41.143Z,1005.89
2019-05-21T06:46:41.137Z,1005.84
2019-05-21T06:47:41.131Z,1005.91
2019-05-21T06:48:41.146Z,1005.91
2019-05-21T06:49:41.127Z,1005.94
2019-05-21T06:50:41.122Z,1005.93
2019-05-21T06:51:41.116Z,1005.90
2019-05-21T06:52:41.147Z,1005.96
2019-05-21T06:53:41.102Z,1005.88
2019-05-21T06:54:41.099Z,1005.94
2019-05-21T06:55:41.097Z,1005.97
2019-05-21T06:56:41.086Z,1005.95
2019-05-21T06:57:41.092Z,1006.01
2019-05-21T06:58:41.073Z,1005.92
2019-05-21T06:59:41.065Z,1006.03
2019-05-21T07:00:41.069Z,1006.01
2019-05-21T07:01:41.097Z,1005.99
2019-05-21T07:02:41.054Z,1006.02
2019-05-21T07:03:41.052Z,1006.07
2019-05-21T07:04:41.039Z,1006.12
2019-05-21T07:05:57.628Z,1006.14
2019-05-21T07:06:42.935Z,1006.10
2019-05-21T07:07:41.028Z,1006.08
2019-05-21T07:08:41.027Z,1006.11
2019-05-21T07:09:41.024Z,1006.17
2019-05-21T07:10:41.012Z,1006.18
2019-05-21T07:11:41.005Z,1006.18
2019-05-21T07:12:41.003Z,1006.23
2019-05-21T07:13:40.996Z,1006.21
2019-05-21T07:14:40.990Z,1006.21
2019-05-21T07:15:40.984Z,1006.19
2019-05-21T07:16:40.977Z,1006.22
2019-05-21T07:17:40.970Z,1006.20
2019-05-21T07:18:41.623Z,1006.25
2019-05-21T07:19:40.957Z,1006.28
2019-05-21T07:20:40.960Z,1006.32
2019-05-21T07:21:40.954Z,1006.34
2019-05-21T07:22:40.993Z,1006.32
2019-05-21T07:23:40.944Z,1006.36
2019-05-21T07:24:40.934Z,1006.37
2019-05-21T07:25:40.930Z,1006.44
2019-05-21T07:26:40.928Z,1006.50
2019-05-21T07:27:40.922Z,1006.48
2019-05-21T07:28:40.916Z,1006.49
2019-05-21T07:29:40.907Z,1006.46
2019-05-21T07:30:40.900Z,1006.52
2019-05-21T07:31:40.894Z,1006.52
2019-05-21T07:32:40.922Z,1006.52
2019-05-21T07:33:40.889Z,1006.60
2019-05-21T07:34:40.889Z,1006.61
2019-05-21T07:35:40.879Z,1006.61
2019-05-21T07:36:40.873Z,1006.58
2019-05-21T07:37:40.866Z,1006.54
2019-05-21T07:38:52.883Z,1006.59
2019-05-21T07:39:40.851Z,1006.58
2019-05-21T07:40:40.850Z,1006.54
2019-05-21T07:41:40.844Z,1006.59
2019-05-21T07:42:40.837Z,1006.66
2019-05-21T07:43:40.833Z,1006.68
2019-05-21T07:44:40.830Z,1006.62
2019-05-21T07:45:40.825Z,1006.63
2019-05-21T07:46:40.824Z,1006.62
2019-05-21T07:47:40.817Z,1006.61
2019-05-21T07:48:40.808Z,1006.61
2019-05-21T07:49:40.803Z,1006.60
2019-05-21T07:50:40.797Z,1006.62
2019-05-21T07:51:40.790Z,1006.65
2019-05-21T07:52:40.790Z,1006.69
2019-05-21T07:53:40.785Z,1006.67
2019-05-21T07:54:40.776Z,1006.69
2019-05-21T07:55:40.771Z,1006.67
2019-05-21T07:56:40.765Z,1006.72
2019-05-21T07:57:40.759Z,1006.65
2019-05-21T07:58:40.754Z,1006.68
2019-05-21T07:59:40.750Z,1006.69
2019-05-21T08:00:40.739Z,1006.72
2019-05-21T08:01:40.736Z,1006.75
2019-05-21T08:02:40.831Z,1006.74
2019-05-21T08:03:40.727Z,1006.76
2019-05-21T08:04:40.728Z,1006.76
2019-05-21T08:05:40.721Z,1006.84
2019-05-21T08:06:40.718Z,1006.82
2019-05-21T08:07:40.712Z,1006.84
2019-05-21T08:08:40.702Z,1006.84
2019-05-21T08:09:40.699Z,1006.88
2019-05-21T08:10:40.726Z,1006.83
2019-05-21T08:11:40.682Z,1006.85
2019-05-21T08:12:40.685Z,1006.82
2019-05-21T08:13:40.680Z,1006.77
2019-05-21T08:14:40.668Z,1006.77
2019-05-21T08:15:40.662Z,1006.77
2019-05-21T08:16:40.660Z,1006.82
2019-05-21T08:17:40.658Z,1006.83
2019-05-21T08:18:40.655Z,1006.89
2019-05-21T08:19:40.652Z,1006.86
2019-05-21T08:20:40.642Z,1006.91
2019-05-21T08:21:40.635Z,1006.91
2019-05-21T08:22:40.638Z,1006.99
2019-05-21T08:23:40.632Z,1006.95
2019-05-21T08:24:40.621Z,1006.97
2019-05-21T08:25:40.683Z,1006.99
2019-05-21T08:26:40.610Z,1006.97
2019-05-21T08:27:40.645Z,1007.06
2019-05-21T08:28:40.598Z,1007.07
2019-05-21T08:29:40.589Z,1007.08
2019-05-21T08:30:40.589Z,1007.01
2019-05-21T08:31:40.583Z,1007.11
2019-05-21T08:32:40.577Z,1007.19
2019-05-21T08:33:40.571Z,1007.19
2019-05-21T08:34:40.565Z,1007.17
2019-05-21T08:35:40.570Z,1007.15
2019-05-21T08:36:40.559Z,1007.21
2019-05-21T08:37:40.553Z,1007.24
2019-05-21T08:38:40.550Z,1007.26
2019-05-21T08:39:40.541Z,1007.25
2019-05-21T08:40:40.531Z,1007.26
2019-05-21T08:41:40.526Z,1007.24
2019-05-21T08:42:40.529Z,1007.24
2019-05-21T08:43:40.516Z,1007.17
2019-05-21T08:44:40.525Z,1007.18
2019-05-21T08:45:40.511Z,1007.18
2019-05-21T08:46:40.502Z,1007.21
2019-05-21T08:47:40.495Z,1007.17
2019-05-21T08:48:40.493Z,1007.22
2019-05-21T08:49:44.073Z,1007.17
2019-05-21T08:50:40.486Z,1007.23
2019-05-21T08:51:40.474Z,1007.24
2019-05-21T08:52:40.465Z,1007.26
2019-05-21T08:53:40.462Z,1007.29
2019-05-21T08:54:40.456Z,1007.27
2019-05-21T08:55:40.448Z,1007.26
2019-05-21T08:56:40.449Z,1007.27
2019-05-21T08:57:40.444Z,1007.24
2019-05-21T08:58:40.440Z,1007.31
2019-05-21T08:59:40.435Z,1007.33
2019-05-21T09:00:40.424Z,1007.33
2019-05-21T09:01:40.421Z,1007.36
2019-05-21T09:02:40.418Z,1007.39
2019-05-21T09:03:40.412Z,1007.37
2019-05-21T09:04:46.300Z,1007.41
2019-05-21T09:05:40.396Z,1007.45
2019-05-21T09:06:40.390Z,1007.44
2019-05-21T09:07:40.384Z,1007.44
2019-05-21T09:08:40.383Z,1007.49
2019-05-21T09:09:50.200Z,1007.43
2019-05-21T09:10:40.372Z,1007.50
2019-05-21T09:11:40.370Z,1007.48
2019-05-21T09:12:40.356Z,1007.48
2019-05-21T09:13:40.393Z,1007.51
2019-05-21T09:14:40.349Z,1007.47
2019-05-21T09:15:40.368Z,1007.52
2019-05-21T09:16:40.346Z,1007.54
2019-05-21T09:17:40.338Z,1007.58
2019-05-21T09:18:40.329Z,1007.62
2019-05-21T09:19:40.328Z,1007.64
2019-05-21T09:20:40.325Z,1007.60
2019-05-21T09:21:40.315Z,1007.64
2019-05-21T09:22:40.309Z,1007.66
2019-05-21T09:23:40.304Z,1007.63
2019-05-21T09:24:40.294Z,1007.66
2019-05-21T09:25:40.290Z,1007.66
2019-05-21T09:26:40.284Z,1007.60
2019-05-21T09:27:40.276Z,1007.67
2019-05-21T09:28:40.276Z,1007.73
2019-05-21T09:29:40.275Z,1007.71
2019-05-21T09:30:40.274Z,1007.69
2019-05-21T09:31:40.262Z,1007.73
2019-05-21T09:32:40.288Z,1007.70
2019-05-21T09:33:40.249Z,1007.73
2019-05-21T09:34:48.874Z,1007.71
2019-05-21T09:35:40.276Z,1007.71
2019-05-21T09:36:40.234Z,1007.72
2019-05-21T09:37:40.232Z,1007.78
2019-05-21T09:38:40.222Z,1007.76
2019-05-21T09:39:40.214Z,1007.77
2019-05-21T09:40:40.218Z,1007.83
2019-05-21T09:41:40.210Z,1007.79
2019-05-21T09:42:40.205Z,1007.80
2019-05-21T09:43:40.199Z,1007.76
2019-05-21T09:44:40.190Z,1007.84
2019-05-21T09:45:40.187Z,1007.87
2019-05-21T09:46:40.178Z,1007.81
2019-05-21T09:47:40.195Z,1007.87
2019-05-21T09:48:40.173Z,1007.84
2019-05-21T09:49:40.165Z,1007.92
2019-05-21T09:50:40.173Z,1007.90
2019-05-21T09:51:40.155Z,1007.90
2019-05-21T09:52:40.150Z,1007.88
2019-05-21T09:53:40.144Z,1007.91
2019-05-21T09:54:40.142Z,1007.93
2019-05-21T09:55:40.134Z,1007.97
2019-05-21T09:56:40.127Z,1007.95
2019-05-21T09:57:40.123Z,1007.92
2019-05-21T09:58:40.119Z,1007.92
2019-05-21T09:59:40.111Z,1007.98
2019-05-21T10:00:40.111Z,1007.97
2019-05-21T10:01:40.106Z,1007.98
2019-05-21T10:02:40.104Z,1007.94
2019-05-21T10:03:40.094Z,1008.00
2019-05-21T10:04:40.086Z,1007.93
2019-05-21T10:05:40.097Z,1007.94
2019-05-21T10:06:40.085Z,1007.98
2019-05-21T10:07:40.777Z,1007.94
2019-05-21T10:08:40.064Z,1007.95
2019-05-21T10:09:40.061Z,1007.99
2019-05-21T10:10:40.056Z,1007.96
2019-05-21T10:11:40.049Z,1007.93
2019-05-21T10:12:40.049Z,1007.98
2019-05-21T10:13:40.072Z,1007.98
2019-05-21T10:14:40.045Z,1008.02
2019-05-21T10:15:40.038Z,1008.00
2019-05-21T10:16:40.028Z,1008.02
2019-05-21T10:17:40.019Z,1008.03
2019-05-21T10:18:40.011Z,1008.07
2019-05-21T10:19:40.004Z,1008.08
2019-05-21T10:20:40.008Z,1008.08
2019-05-21T10:21:40.006Z,1008.13
2019-05-21T10:22:39.993Z,1008.14
2019-05-21T10:23:39.998Z,1008.08
2019-05-21T10:24:39.985Z,1008.16
2019-05-21T10:25:40.021Z,1008.12
2019-05-21T10:26:39.978Z,1008.15
2019-05-21T10:27:39.982Z,1008.16
2019-05-21T10:28:39.990Z,1008.17
2019-05-21T10:29:39.959Z,1008.18
2019-05-21T10:30:39.960Z,1008.26
2019-05-21T10:31:39.963Z,1008.22
2019-05-21T10:32:39.946Z,1008.22
2019-05-21T10:33:39.941Z,1008.21
2019-05-21T10:34:39.934Z,1008.27
2019-05-21T10:35:39.928Z,1008.25
2019-05-21T10:36:39.932Z,1008.24
2019-05-21T10:37:54.056Z,1008.26
2019-05-21T10:38:39.915Z,1008.24
2019-05-21T10:39:39.910Z,1008.28
2019-05-21T10:40:39.919Z,1008.25
2019-05-21T10:41:39.897Z,1008.28
2019-05-21T10:42:39.892Z,1008.32
2019-05-21T10:43:39.886Z,1008.32
2019-05-21T10:44:39.887Z,1008.32
2019-05-21T10:45:39.881Z,1008.38
2019-05-21T10:46:39.879Z,1008.38
2019-05-21T10:47:39.864Z,1008.33
2019-05-21T10:48:39.866Z,1008.36
2019-05-21T10:49:39.862Z,1008.35
2019-05-21T10:50:39.857Z,1008.36
2019-05-21T10:51:39.850Z,1008.31
2019-05-21T10:52:39.843Z,1008.36
2019-05-21T10:53:39.837Z,1008.36
2019-05-21T10:54:39.837Z,1008.39
2019-05-21T10:55:39.834Z,1008.37
2019-05-21T10:56:48.144Z,1008.39
2019-05-21T10:57:39.821Z,1008.42
2019-05-21T10:58:39.812Z,1008.44
2019-05-21T10:59:39.805Z,1008.39
2019-05-21T11:00:39.805Z,1008.37
2019-05-21T11:01:39.799Z,1008.39
2019-05-21T11:02:39.795Z,1008.42
2019-05-21T11:03:39.788Z,1008.41
2019-05-21T11:04:39.779Z,1008.38
2019-05-21T11:05:39.774Z,1008.43
2019-05-21T11:06:39.773Z,1008.35
2019-05-21T11:07:39.772Z,1008.37
2019-05-21T11:08:39.768Z,1008.41
2019-05-21T11:09:39.764Z,1008.44
2019-05-21T11:10:39.756Z,1008.47
2019-05-21T11:11:39.752Z,1008.39
2019-05-21T11:12:39.750Z,1008.45
2019-05-21T11:13:39.744Z,1008.49
2019-05-21T11:14:39.743Z,1008.48
2019-05-21T11:15:39.733Z,1008.45
2019-05-21T11:16:39.722Z,1008.46
2019-05-21T11:17:49.931Z,1008.48
2019-05-21T11:18:39.715Z,1008.51
2019-05-21T11:19:39.707Z,1008.52
2019-05-21T11:20:39.708Z,1008.52
2019-05-21T11:21:39.702Z,1008.58
2019-05-21T11:22:39.713Z,1008.58
2019-05-21T11:23:39.710Z,1008.55
2019-05-21T11:24:39.690Z,1008.59
2019-05-21T11:25:39.687Z,1008.65
2019-05-21T11:26:39.683Z,1008.69
2019-05-21T11:27:39.679Z,1008.73
2019-05-21T11:28:39.670Z,1008.74
2019-05-21T11:29:39.664Z,1008.74
2019-05-21T11:30:39.657Z,1008.69
2019-05-21T11:31:55.367Z,1008.77
2019-05-21T11:32:39.656Z,1008.75
2019-05-21T11:33:39.651Z,1008.73
2019-05-21T11:34:39.642Z,1008.76
2019-05-21T11:35:39.637Z,1008.75
2019-05-21T11:36:39.643Z,1008.76
2019-05-21T11:37:39.628Z,1008.70
2019-05-21T11:38:40.498Z,1008.71
2019-05-21T11:39:39.616Z,1008.71
2019-05-21T11:40:39.617Z,1008.80
2019-05-21T11:41:39.610Z,1008.81
2019-05-21T11:42:39.613Z,1008.78
2019-05-21T11:43:39.597Z,1008.84
2019-05-21T11:44:39.598Z,1008.78
2019-05-21T11:45:39.591Z,1008.84
2019-05-21T11:46:39.586Z,1008.81
2019-05-21T11:47:39.578Z,1008.84
2019-05-21T11:48:39.582Z,1008.82
2019-05-21T11:49:39.568Z,1008.84
2019-05-21T11:50:39.565Z,1008.89
2019-05-21T11:51:39.561Z,1008.84
2019-05-21T11:52:39.568Z,1008.91
2019-05-21T11:53:39.556Z,1008.86
2019-05-21T11:54:39.547Z,1008.91
2019-05-21T11:55:39.549Z,1008.94
2019-05-21T11:56:39.535Z,1008.89
2019-05-21T11:57:39.528Z,1008.93
2019-05-21T11:58:40.138Z,1008.95
2019-05-21T11:59:39.526Z,1008.92
2019-05-21T12:00:39.534Z,1008.94
2019-05-21T12:01:39.527Z,1008.93
2019-05-21T12:02:39.511Z,1008.99
2019-05-21T12:03:39.506Z,1008.97
2019-05-21T12:04:39.506Z,1008.99
2019-05-21T12:05:39.498Z,1008.99